To NAV CANADA Home Page Login to a new session Search on AWWS site Feedback and Comments Disclaimer Vers la page française équivalente Tips FAQ What's new on the site To the Forecasts and Observations / NOTAM section To "File a Flight Plan" website Publications and other links Update of the User's profile FIC Telephone Numbers My Weather Data Folder Route Weather Data Regional Weather Data Local Weather Data To the Forecasts and Observations / NOTAM section
Request Generated 03/29/2015 at 10:33:56 UTC . Weather information available at that time is displayed.

METAR/TAF

LOURDES-DE-BLANC-SABLON/QC    

METAR CYBX 291000Z 04004KT 040V100 15SM FEW150 BKN220 M15/M20 A2968
RMK AC1CI5 SLP053=
METAR CYBX 290900Z 05003KT 350V170 15SM FEW220 M13/M18 A2965 RMK CI1
SLP045=
METAR CYBX 290800Z 02004KT 15SM SKC M12/M18 A2965 RMK SLP045=

TAF CYBX 290738Z 2908/2920 05007KT P6SM SCT240
BECMG 2914/2916 26005KT
RMK NXT FCST BY 291400Z=
Your time UTC time
Weather data provided by Environment Canada and NAV CANADA